createdAt,value
2023-04-02T00:01:04.092Z,101268.09
2023-04-02T00:03:54.062Z,101273.78
2023-04-02T00:06:33.285Z,101279.50
2023-04-02T00:09:21.964Z,101273.84
2023-04-02T00:11:50.788Z,101283.31
2023-04-02T00:14:21.584Z,101279.53
2023-04-02T00:16:48.527Z,101290.09
2023-04-02T00:19:23.118Z,101293.50
2023-04-02T00:21:52.031Z,101294.28
2023-04-02T00:24:20.998Z,101291.28
2023-04-02T00:26:52.779Z,101298.81
2023-04-02T00:29:19.676Z,101304.88
2023-04-02T00:31:51.955Z,101309.03
2023-04-02T00:34:30.549Z,101307.13
2023-04-02T00:36:58.190Z,101316.97
2023-04-02T00:39:28.425Z,101316.97
2023-04-02T00:42:06.381Z,101325.28
2023-04-02T00:44:37.898Z,101325.66
2023-04-02T00:47:14.887Z,101339.28
2023-04-02T00:49:41.879Z,101340.81
2023-04-02T00:52:22.092Z,101343.47
2023-04-02T00:54:52.240Z,101351.78
2023-04-02T00:57:25.620Z,101352.19
2023-04-02T00:59:55.184Z,101351.81
2023-04-02T01:02:29.514Z,101360.88
2023-04-02T01:05:20.645Z,101371.84
2023-04-02T01:07:47.356Z,101374.13
2023-04-02T01:10:29.239Z,101379.03
2023-04-02T01:13:04.785Z,101385.06
2023-04-02T01:15:39.271Z,101383.56
2023-04-02T01:18:41.409Z,101399.06
2023-04-02T01:21:54.022Z,101396.41
2023-04-02T01:24:24.615Z,101404.34
2023-04-02T01:27:02.091Z,101398.72
2023-04-02T01:29:38.158Z,101404.78
2023-04-02T01:32:09.409Z,101405.56
2023-04-02T01:34:36.539Z,101418.00
2023-04-02T01:37:24.438Z,101414.63
2023-04-02T01:40:18.152Z,101417.66
2023-04-02T01:43:03.754Z,101419.56
2023-04-02T01:45:30.363Z,101421.44
2023-04-02T01:47:58.291Z,101431.97
2023-04-02T01:50:37.933Z,101435.00
2023-04-02T01:53:12.032Z,101444.84
2023-04-02T01:55:38.478Z,101445.59
2023-04-02T01:58:05.693Z,101453.91
2023-04-02T02:00:34.590Z,101458.06
2023-04-02T02:03:02.386Z,101457.72
2023-04-02T02:05:29.834Z,101470.94
2023-04-02T02:07:58.577Z,101476.56
2023-04-02T02:10:34.666Z,101473.19
2023-04-02T02:13:01.878Z,101484.13
2023-04-02T02:15:31.766Z,101478.09
2023-04-02T02:18:02.956Z,101483.00
2023-04-02T02:20:30.290Z,101496.22
2023-04-02T02:22:58.864Z,101492.09
2023-04-02T02:25:30.816Z,101503.81
2023-04-02T02:27:57.492Z,101497.81
2023-04-02T02:30:48.835Z,101508.00
2023-04-02T02:33:26.218Z,101508.38
2023-04-02T02:36:06.136Z,101520.84
2023-04-02T02:38:44.637Z,101518.59
2023-04-02T02:41:21.600Z,101529.53
2023-04-02T02:44:01.542Z,101534.03
2023-04-02T02:46:30.876Z,101523.50
2023-04-02T02:49:00.022Z,101532.94
2023-04-02T02:51:30.849Z,101543.09
2023-04-02T02:54:04.094Z,101549.50
2023-04-02T02:56:38.036Z,101548.78
2023-04-02T02:59:08.394Z,101553.31
2023-04-02T03:01:39.495Z,101565.38
2023-04-02T03:04:06.656Z,101569.53
2023-04-02T03:06:33.461Z,101574.78
2023-04-02T03:09:17.405Z,101574.78
2023-04-02T03:12:01.955Z,101586.09
2023-04-02T03:14:42.572Z,101588.34
2023-04-02T03:17:38.983Z,101595.91
2023-04-02T03:20:37.176Z,101612.47
2023-04-02T03:23:19.306Z,101607.94
2023-04-02T03:26:01.831Z,101621.13
2023-04-02T03:28:37.360Z,101620.00
2023-04-02T03:31:22.637Z,101627.53
2023-04-02T03:34:01.733Z,101635.44
2023-04-02T03:36:43.681Z,101642.59
2023-04-02T03:39:20.249Z,101649.00
2023-04-02T03:41:58.606Z,101651.63
2023-04-02T03:44:46.516Z,101658.03
2023-04-02T03:47:26.005Z,101670.44
2023-04-02T03:50:01.276Z,101676.13
2023-04-02T03:52:30.322Z,101681.41
2023-04-02T03:55:02.967Z,101681.75
2023-04-02T03:57:40.940Z,101680.25
2023-04-02T04:00:17.303Z,101690.81
2023-04-02T04:02:52.405Z,101694.56
2023-04-02T04:05:26.181Z,101711.91
2023-04-02T04:08:01.324Z,101707.00
2023-04-02T04:10:30.297Z,101709.63
2023-04-02T04:13:06.096Z,101713.78
2023-04-02T04:15:48.361Z,101725.06
2023-04-02T04:18:29.762Z,101729.22
2023-04-02T04:21:01.118Z,101738.63
2023-04-02T04:23:40.967Z,101747.25
2023-04-02T04:26:25.557Z,101746.84
2023-04-02T04:29:31.924Z,101755.50
2023-04-02T04:32:33.751Z,101760.75
2023-04-02T04:35:19.172Z,101762.25
2023-04-02T04:37:49.715Z,101775.78
2023-04-02T04:40:26.212Z,101771.97
2023-04-02T04:43:00.916Z,101782.53
2023-04-02T04:45:47.665Z,101784.03
2023-04-02T04:48:36.597Z,101781.75
2023-04-02T04:51:08.589Z,101800.19
2023-04-02T04:53:45.845Z,101800.16
2023-04-02T04:56:19.520Z,101809.59
2023-04-02T04:59:30.359Z,101823.91
2023-04-02T05:02:07.577Z,101818.59
2023-04-02T05:04:40.541Z,101827.25
2023-04-02T05:07:17.176Z,101830.22
2023-04-02T05:10:11.729Z,101841.06
2023-04-02T05:12:48.465Z,101843.25
2023-04-02T05:15:33.550Z,101849.97
2023-04-02T05:18:28.102Z,101857.44
2023-04-02T05:21:07.099Z,101861.47
2023-04-02T05:23:43.278Z,101875.28
2023-04-02T05:26:21.706Z,101880.53
2023-04-02T05:29:06.276Z,101883.88
2023-04-02T05:31:53.209Z,101896.97
2023-04-02T05:34:27.143Z,101889.84
2023-04-02T05:36:55.639Z,101900.38
2023-04-02T05:39:24.758Z,101904.13
2023-04-02T05:42:08.395Z,101911.25
2023-04-02T05:45:19.390Z,101922.31
2023-04-02T05:47:50.670Z,101925.25
2023-04-02T05:50:21.586Z,101932.72
2023-04-02T05:53:04.049Z,101939.78
2023-04-02T05:55:43.136Z,101941.66
2023-04-02T05:58:35.271Z,101952.19
2023-04-02T06:01:15.556Z,101961.94
2023-04-02T06:03:50.566Z,101962.31
2023-04-02T06:06:45.935Z,101972.34
2023-04-02T06:09:37.781Z,101982.09
2023-04-02T06:12:26.530Z,101989.28
2023-04-02T06:14:54.024Z,102005.41
2023-04-02T06:17:22.791Z,102007.59
2023-04-02T06:19:51.595Z,102015.81
2023-04-02T06:22:35.432Z,102023.38
2023-04-02T06:25:27.836Z,102032.38
2023-04-02T06:27:58.253Z,102029.72
2023-04-02T06:30:30.833Z,102039.91
2023-04-02T06:32:57.915Z,102040.25
2023-04-02T06:35:26.116Z,102047.38
2023-04-02T06:38:02.954Z,102049.72
2023-04-02T06:40:53.014Z,102052.00
2023-04-02T06:43:36.105Z,102058.81
2023-04-02T06:46:28.822Z,102060.69
2023-04-02T06:49:15.061Z,102073.09
2023-04-02T06:51:44.695Z,102080.22
2023-04-02T06:54:16.119Z,102077.59
2023-04-02T06:56:52.928Z,102085.91
2023-04-02T06:59:35.303Z,102094.63
2023-04-02T07:02:15.847Z,102099.94
2023-04-02T07:04:43.160Z,102101.03
2023-04-02T07:07:10.210Z,102115.66
2023-04-02T07:09:40.258Z,102110.09
2023-04-02T07:12:12.465Z,102118.03
2023-04-02T07:14:39.492Z,102128.97
2023-04-02T07:17:06.388Z,102125.28
2023-04-02T07:19:32.878Z,102130.91
2023-04-02T07:22:00.358Z,102141.19
2023-04-02T07:24:33.106Z,102144.16
2023-04-02T07:26:59.571Z,102150.53
2023-04-02T07:29:26.157Z,102163.47
2023-04-02T07:31:53.888Z,102173.88
2023-04-02T07:34:20.441Z,102171.94
2023-04-02T07:36:46.900Z,102176.44
2023-04-02T07:39:13.351Z,102185.22
2023-04-02T07:41:54.149Z,102184.00
2023-04-02T07:44:20.705Z,102193.06
2023-04-02T07:46:47.180Z,102190.13
2023-04-02T07:49:13.608Z,102194.34
2023-04-02T07:51:40.251Z,102188.75
2023-04-02T07:54:07.659Z,102195.59
2023-04-02T07:56:34.151Z,102195.94
2023-04-02T07:59:00.608Z,102203.44
2023-04-02T08:01:27.722Z,102207.16
2023-04-02T08:03:56.131Z,102204.84
2023-04-02T08:06:23.429Z,102213.53
2023-04-02T08:08:50.706Z,102216.63
2023-04-02T08:11:17.410Z,102223.13
2023-04-02T08:13:44.122Z,102226.56
2023-04-02T08:16:11.013Z,102225.16
2023-04-02T08:18:37.965Z,102235.66
2023-04-02T08:21:09.364Z,102240.09
2023-04-02T08:23:37.037Z,102241.97
2023-04-02T08:26:04.705Z,102248.81
2023-04-02T08:28:31.377Z,102251.91
2023-04-02T08:30:58.001Z,102260.25
2023-04-02T08:33:24.566Z,102265.81
2023-04-02T08:35:51.125Z,102275.34
2023-04-02T08:38:19.619Z,102284.38
2023-04-02T08:40:50.431Z,102281.03
2023-04-02T08:43:37.407Z,102289.59
2023-04-02T08:46:24.582Z,102285.97
2023-04-02T08:48:55.461Z,102296.47
2023-04-02T08:51:25.701Z,102293.53
2023-04-02T08:53:55.487Z,102303.34
2023-04-02T08:56:36.684Z,102315.75
2023-04-02T08:59:27.098Z,102319.63
2023-04-02T09:02:19.102Z,102323.72
2023-04-02T09:04:45.688Z,102329.03
2023-04-02T09:07:15.376Z,102330.84
2023-04-02T09:09:43.056Z,102331.91
2023-04-02T09:12:20.960Z,102332.03
2023-04-02T09:15:11.063Z,102345.59
2023-04-02T09:17:50.629Z,102349.81
2023-04-02T09:20:24.143Z,102351.50
2023-04-02T09:22:53.032Z,102351.63
2023-04-02T09:25:33.776Z,102357.06
2023-04-02T09:28:02.327Z,102364.03
2023-04-02T09:30:31.732Z,102368.63
2023-04-02T09:33:07.335Z,102381.50
2023-04-02T09:35:36.815Z,102378.53
2023-04-02T09:38:24.424Z,102387.28
2023-04-02T09:40:56.098Z,102377.63
2023-04-02T09:43:23.711Z,102383.66
2023-04-02T09:46:00.968Z,102388.88
2023-04-02T09:48:41.175Z,102382.69
2023-04-02T09:51:15.384Z,102384.31
2023-04-02T09:53:50.148Z,102381.84
2023-04-02T09:56:26.354Z,102377.06
2023-04-02T09:59:22.207Z,102382.69
2023-04-02T10:02:00.795Z,102397.28
2023-04-02T10:04:46.903Z,102397.03
2023-04-02T10:07:37.338Z,102401.47
2023-04-02T10:10:28.965Z,102398.97
2023-04-02T10:13:22.951Z,102407.41
2023-04-02T10:15:59.333Z,102426.97
2023-04-02T10:18:48.518Z,102422.94
2023-04-02T10:21:23.595Z,102421.94
2023-04-02T10:23:50.101Z,102432.63
2023-04-02T10:26:38.747Z,102419.09
2023-04-02T10:29:27.102Z,102413.03
2023-04-02T10:32:18.752Z,102426.72
2023-04-02T10:34:54.268Z,102420.72
2023-04-02T10:37:23.621Z,102425.25
2023-04-02T10:39:57.036Z,102424.94
2023-04-02T10:42:37.417Z,102434.41
2023-04-02T10:45:31.752Z,102431.78
2023-04-02T10:48:30.597Z,102435.53
2023-04-02T10:51:20.402Z,102432.06
2023-04-02T10:53:58.508Z,102434.38
2023-04-02T10:56:27.146Z,102432.50
2023-04-02T10:59:02.322Z,102434.78
2023-04-02T11:01:31.122Z,102432.53
2023-04-02T11:04:05.691Z,102446.94
2023-04-02T11:06:46.214Z,102450.34
2023-04-02T11:09:20.131Z,102451.47
2023-04-02T11:11:51.299Z,102454.88
2023-04-02T11:14:25.242Z,102448.84
2023-04-02T11:16:54.143Z,102453.41
2023-04-02T11:19:26.678Z,102456.81
2023-04-02T11:21:59.368Z,102463.63
2023-04-02T11:24:31.665Z,102466.63
2023-04-02T11:27:31.322Z,102459.44
2023-04-02T11:30:16.176Z,102461.00
2023-04-02T11:32:45.274Z,102469.34
2023-04-02T11:35:30.670Z,102487.16
2023-04-02T11:38:05.478Z,102488.66
2023-04-02T11:40:55.180Z,102483.72
2023-04-02T11:43:33.637Z,102480.69
2023-04-02T11:46:01.742Z,102492.81
2023-04-02T11:48:37.525Z,102492.84
2023-04-02T11:51:24.988Z,102486.03
2023-04-02T11:53:58.354Z,102492.88
2023-04-02T11:56:51.130Z,102495.53
2023-04-02T11:59:36.463Z,102500.44
2023-04-02T12:02:40.459Z,102504.59
2023-04-02T12:05:36.818Z,102493.97
2023-04-02T12:08:50.687Z,102509.13
2023-04-02T12:11:35.876Z,102503.47
2023-04-02T12:14:26.976Z,102515.97
2023-04-02T12:16:53.675Z,102499.28
2023-04-02T12:19:20.464Z,102517.91
2023-04-02T12:21:49.708Z,102530.03
2023-04-02T12:24:21.296Z,102528.50
2023-04-02T12:26:47.997Z,102530.38
2023-04-02T12:29:20.965Z,102525.84
2023-04-02T12:31:48.252Z,102520.56
2023-04-02T12:34:17.789Z,102531.91
2023-04-02T12:36:56.357Z,102527.34
2023-04-02T12:39:25.213Z,102528.84
2023-04-02T12:41:54.138Z,102523.16
2023-04-02T12:44:23.357Z,102526.97
2023-04-02T12:46:52.190Z,102533.41
2023-04-02T12:49:36.977Z,102532.66
2023-04-02T12:52:10.252Z,102546.69
2023-04-02T12:54:45.957Z,102541.38
2023-04-02T12:57:28.816Z,102538.31
2023-04-02T13:00:22.870Z,102543.63
2023-04-02T13:02:51.611Z,102547.44
2023-04-02T13:05:45.411Z,102551.22
2023-04-02T13:08:22.858Z,102548.19
2023-04-02T13:11:03.726Z,102550.09
2023-04-02T13:13:42.202Z,102550.84
2023-04-02T13:16:17.606Z,102551.22
2023-04-02T13:18:46.270Z,102546.66
2023-04-02T13:21:19.309Z,102550.47
2023-04-02T13:23:46.479Z,102553.88
2023-04-02T13:26:21.949Z,102551.22
2023-04-02T13:29:00.738Z,102559.56
2023-04-02T13:31:28.834Z,102574.31
2023-04-02T13:33:55.379Z,102554.25
2023-04-02T13:36:22.231Z,102566.00
2023-04-02T13:38:48.811Z,102559.19
2023-04-02T13:41:26.410Z,102567.91
2023-04-02T13:43:55.248Z,102560.69
2023-04-02T13:46:24.904Z,102559.56
2023-04-02T13:48:52.617Z,102550.78
2023-04-02T13:51:22.518Z,102567.09
2023-04-02T13:53:54.317Z,102584.94
2023-04-02T13:56:22.763Z,102570.91
2023-04-02T13:58:49.294Z,102574.69
2023-04-02T14:01:15.877Z,102586.44
2023-04-02T14:03:42.405Z,102575.06
2023-04-02T14:06:09.501Z,102577.72
2023-04-02T14:08:53.067Z,102581.13
2023-04-02T14:11:25.855Z,102590.63
2023-04-02T14:14:41.445Z,102587.19
2023-04-02T14:17:18.318Z,102595.16
2023-04-02T14:20:03.090Z,102586.81
2023-04-02T14:22:54.926Z,102590.22
2023-04-02T14:25:36.593Z,102601.22
2023-04-02T14:28:11.139Z,102594.00
2023-04-02T14:31:01.539Z,102593.63
2023-04-02T14:34:03.531Z,102599.31
2023-04-02T14:37:01.308Z,102597.41
2023-04-02T14:39:52.041Z,102606.53
2023-04-02T14:42:33.001Z,102603.13
2023-04-02T14:45:28.788Z,102601.22
2023-04-02T14:48:02.873Z,102612.22
2023-04-02T14:50:35.239Z,102609.19
2023-04-02T14:53:09.362Z,102618.66
2023-04-02T14:55:43.502Z,102622.09
2023-04-02T14:58:18.887Z,102623.22
2023-04-02T15:00:54.873Z,102616.78
2023-04-02T15:03:24.812Z,102627.03
2023-04-02T15:06:19.799Z,102626.63
2023-04-02T15:09:02.106Z,102623.59
2023-04-02T15:11:38.580Z,102625.84
2023-04-02T15:14:46.260Z,102625.84
2023-04-02T15:17:12.997Z,102631.16
2023-04-02T15:19:39.741Z,102636.13
2023-04-02T15:22:30.789Z,102643.34
2023-04-02T15:25:15.760Z,102641.81
2023-04-02T15:27:51.234Z,102641.03
2023-04-02T15:30:35.871Z,102634.19
2023-04-02T15:33:24.354Z,102640.63
2023-04-02T15:36:21.433Z,102640.28
2023-04-02T15:38:54.335Z,102640.69
2023-04-02T15:41:26.537Z,102642.19
2023-04-02T15:44:07.878Z,102641.78
2023-04-02T15:46:57.617Z,102641.41
2023-04-02T15:49:48.874Z,102645.22
2023-04-02T15:52:25.713Z,102642.97
2023-04-02T15:55:01.958Z,102644.47
2023-04-02T15:57:54.521Z,102644.09
2023-04-02T16:00:26.777Z,102645.19
2023-04-02T16:03:06.215Z,102646.72
2023-04-02T16:06:17.216Z,102644.84
2023-04-02T16:09:07.989Z,102652.81
2023-04-02T16:11:34.838Z,102655.88
2023-04-02T16:14:16.654Z,102658.91
2023-04-02T16:16:46.696Z,102667.63
2023-04-02T16:19:34.614Z,102674.47
2023-04-02T16:22:27.802Z,102678.66
2023-04-02T16:25:01.478Z,102678.25
2023-04-02T16:27:38.199Z,102675.22
2023-04-02T16:30:07.650Z,102679.41
2023-04-02T16:32:53.053Z,102674.84
2023-04-02T16:35:40.903Z,102682.44
2023-04-02T16:38:23.970Z,102690.41
2023-04-02T16:41:10.978Z,102689.28
2023-04-02T16:43:46.928Z,102696.09
2023-04-02T16:46:31.833Z,102691.56
2023-04-02T16:49:08.373Z,102704.44
2023-04-02T16:51:50.945Z,102703.69
2023-04-02T16:54:35.505Z,102714.31
2023-04-02T16:57:28.189Z,102713.56
2023-04-02T17:00:10.981Z,102718.47
2023-04-02T17:02:43.248Z,102725.72
2023-04-02T17:05:20.593Z,102732.16
2023-04-02T17:07:50.810Z,102734.03
2023-04-02T17:10:30.207Z,102734.03
2023-04-02T17:13:08.395Z,102740.47
2023-04-02T17:15:39.298Z,102746.53
2023-04-02T17:18:16.534Z,102751.44
2023-04-02T17:20:43.501Z,102763.59
2023-04-02T17:23:14.085Z,102756.38
2023-04-02T17:25:57.143Z,102761.28
2023-04-02T17:28:29.461Z,102765.06
2023-04-02T17:30:59.756Z,102765.47
2023-04-02T17:33:28.472Z,102760.91
2023-04-02T17:36:12.668Z,102766.53
2023-04-02T17:39:09.601Z,102769.56
2023-04-02T17:41:54.936Z,102770.69
2023-04-02T17:44:46.174Z,102779.75
2023-04-02T17:47:47.687Z,102779.72
2023-04-02T17:50:17.144Z,102788.03
2023-04-02T17:52:58.370Z,102794.09
2023-04-02T17:55:48.898Z,102790.28
2023-04-02T17:58:34.193Z,102793.66
2023-04-02T18:01:24.855Z,102800.06
2023-04-02T18:04:23.413Z,102805.72
2023-04-02T18:07:29.317Z,102814.41
2023-04-02T18:09:55.847Z,102816.63
2023-04-02T18:12:52.986Z,102823.03
2023-04-02T18:15:36.035Z,102826.03
2023-04-02T18:18:21.530Z,102831.69
2023-04-02T18:21:00.762Z,102833.91
2023-04-02T18:23:55.435Z,102831.25
2023-04-02T18:26:33.737Z,102842.56
2023-04-02T18:29:27.789Z,102844.78
2023-04-02T18:32:21.219Z,102847.00
2023-04-02T18:35:02.812Z,102860.94
2023-04-02T18:37:36.905Z,102857.09
2023-04-02T18:40:30.582Z,102864.66
2023-04-02T18:43:08.160Z,102869.50
2023-04-02T18:45:53.562Z,102865.66
2023-04-02T18:48:31.293Z,102872.44
2023-04-02T18:51:00.334Z,102873.88
2023-04-02T18:53:31.025Z,102874.56
2023-04-02T18:56:11.437Z,102879.81
2023-04-02T18:58:52.716Z,102885.06
2023-04-02T19:04:31.295Z,102898.59
2023-04-02T19:07:04.563Z,102898.50
2023-04-02T19:09:34.913Z,102907.94
2023-04-02T19:12:03.748Z,102909.00
2023-04-02T19:14:30.557Z,102921.06
2023-04-02T19:17:09.862Z,102921.78
2023-04-02T19:19:58.261Z,102925.16
2023-04-02T19:22:43.484Z,102932.69
2023-04-02T19:25:58.795Z,102936.03
2023-04-02T19:28:27.994Z,102940.16
2023-04-02T19:31:27.924Z,102940.13
2023-04-02T19:34:15.381Z,102941.19
2023-04-02T19:37:01.296Z,102941.50
2023-04-02T19:39:39.605Z,102945.22
2023-04-02T19:42:24.519Z,102944.38
2023-04-02T19:44:53.382Z,102952.28
2023-04-02T19:47:20.218Z,102954.09
2023-04-02T19:49:46.889Z,102952.91
2023-04-02T19:52:13.394Z,102957.38
2023-04-02T19:54:39.897Z,102961.84
2023-04-02T19:57:06.712Z,102958.41
2023-04-02T19:59:33.242Z,102959.88
2023-04-02T20:02:02.002Z,102966.28
2023-04-02T20:04:28.572Z,102964.34
2023-04-02T20:06:55.366Z,102965.03
2023-04-02T20:09:22.309Z,102969.91
2023-04-02T20:11:48.986Z,102967.19
2023-04-02T20:14:15.541Z,102963.72
2023-04-02T20:16:43.802Z,102972.34
2023-04-02T20:19:11.047Z,102974.16
2023-04-02T20:21:38.851Z,102972.56
2023-04-02T20:24:06.510Z,102975.16
2023-04-02T20:26:34.229Z,102979.63
2023-04-02T20:29:00.740Z,102984.09
2023-04-02T20:31:27.745Z,102990.84
2023-04-02T20:33:58.289Z,102989.22
2023-04-02T20:36:25.080Z,102995.97
2023-04-02T20:38:52.180Z,103000.09
2023-04-02T20:41:19.532Z,103002.22
2023-04-02T20:43:46.098Z,103013.16
2023-04-02T20:46:12.992Z,103008.13
2023-04-02T20:48:40.113Z,103012.59
2023-04-02T20:51:09.447Z,103015.56
2023-04-02T20:53:37.695Z,103018.13
2023-04-02T20:56:13.646Z,103017.31
2023-04-02T20:58:41.477Z,103019.53
2023-04-02T21:01:12.440Z,103019.81
2023-04-02T21:03:39.929Z,103029.53
2023-04-02T21:06:12.158Z,103031.00
2023-04-02T21:08:38.605Z,103030.91
2023-04-02T21:11:06.108Z,103029.31
2023-04-02T21:13:33.732Z,103036.03
2023-04-02T21:16:00.444Z,103032.91
2023-04-02T21:18:26.971Z,103041.50
2023-04-02T21:21:02.294Z,103050.88
2023-04-02T21:23:29.254Z,103045.53
2023-04-02T21:25:57.544Z,103046.56
2023-04-02T21:28:24.817Z,103056.69
2023-04-02T21:30:51.674Z,103057.38
2023-04-02T21:33:18.202Z,103057.72
2023-04-02T21:35:44.646Z,103059.59
2023-04-02T21:38:11.142Z,103061.38
2023-04-02T21:40:37.550Z,103065.47
2023-04-02T21:43:03.984Z,103066.13
2023-04-02T21:45:30.509Z,103069.47
2023-04-02T21:47:57.079Z,103066.72
2023-04-02T21:50:23.622Z,103077.19
2023-04-02T21:52:50.195Z,103077.53
2023-04-02T21:55:16.737Z,103073.69
2023-04-02T21:57:43.311Z,103076.69
2023-04-02T22:00:12.282Z,103069.81
2023-04-02T22:02:38.876Z,103070.50
2023-04-02T22:05:06.103Z,103065.47
2023-04-02T22:07:32.602Z,103067.34
2023-04-02T22:09:59.105Z,103074.38
2023-04-02T22:12:25.783Z,103079.22
2023-04-02T22:14:52.268Z,103079.13
2023-04-02T22:17:18.701Z,103086.63
2023-04-02T22:19:45.182Z,103079.38
2023-04-02T22:22:11.678Z,103071.72
2023-04-02T22:24:39.971Z,103078.44
2023-04-02T22:27:06.442Z,103083.59
2023-04-02T22:29:33.567Z,103076.75
2023-04-02T22:32:00.008Z,103080.81
2023-04-02T22:34:26.485Z,103078.09
2023-04-02T22:36:53.283Z,103084.78
2023-04-02T22:39:19.705Z,103081.28
2023-04-02T22:41:46.366Z,103076.69
2023-04-02T22:44:16.153Z,103077.34
2023-04-02T22:46:43.081Z,103084.81
2023-04-02T22:49:11.035Z,103079.47
2023-04-02T22:51:37.435Z,103084.63
2023-04-02T22:54:04.082Z,103085.63
2023-04-02T22:56:32.730Z,103091.56
2023-04-02T22:58:59.356Z,103093.78
2023-04-02T23:01:32.293Z,103093.69
2023-04-02T23:03:59.391Z,103092.50
2023-04-02T23:06:26.316Z,103097.66
2023-04-02T23:08:52.887Z,103091.50
2023-04-02T23:11:22.184Z,103098.53
2023-04-02T23:13:50.587Z,103095.47
2023-04-02T23:16:18.157Z,103095.38
2023-04-02T23:18:47.885Z,103096.81
2023-04-02T23:21:15.839Z,103098.22
2023-04-02T23:23:42.386Z,103093.28
2023-04-02T23:26:12.698Z,103100.00
2023-04-02T23:28:40.268Z,103102.94
2023-04-02T23:31:09.470Z,103098.78
2023-04-02T23:33:35.981Z,103100.97
2023-04-02T23:36:10.822Z,103102.44
2023-04-02T23:38:37.318Z,103099.38
2023-04-02T23:41:03.881Z,103105.72
2023-04-02T23:43:30.533Z,103107.91
2023-04-02T23:45:57.135Z,103103.31
2023-04-02T23:48:23.697Z,103108.91
2023-04-02T23:50:50.364Z,103110.00
2023-04-02T23:53:17.052Z,103099.38
2023-04-02T23:55:43.706Z,103104.19
2023-04-02T23:58:10.247Z,103111.97
